createdAt,value
2023-04-29T00:02:15.615Z,9.35
2023-04-29T00:04:42.366Z,9.36
2023-04-29T00:07:09.309Z,9.39
2023-04-29T00:09:37.493Z,9.36
2023-04-29T00:12:03.967Z,9.36
2023-04-29T00:14:30.433Z,9.37
2023-04-29T00:16:57.251Z,9.37
2023-04-29T00:19:23.983Z,9.35
2023-04-29T00:21:50.661Z,9.30
2023-04-29T00:24:17.172Z,9.30
2023-04-29T00:26:43.709Z,9.30
2023-04-29T00:29:10.470Z,9.31
2023-04-29T00:31:37.458Z,9.32
2023-04-29T00:34:04.142Z,9.34
2023-04-29T00:36:31.835Z,9.31
2023-04-29T00:38:58.679Z,9.33
2023-04-29T00:41:26.004Z,9.32
2023-04-29T00:43:52.975Z,9.34
2023-04-29T00:46:19.768Z,9.32
2023-04-29T00:48:46.310Z,9.33
2023-04-29T00:51:13.734Z,9.31
2023-04-29T00:53:40.852Z,9.34
2023-04-29T00:56:08.645Z,9.34
2023-04-29T00:58:36.359Z,9.36
2023-04-29T01:01:03.796Z,9.34
2023-04-29T01:03:31.955Z,9.32
2023-04-29T01:06:30.248Z,9.31
2023-04-29T01:09:12.186Z,9.32
2023-04-29T01:12:13.089Z,9.29
2023-04-29T01:14:46.689Z,9.27
2023-04-29T01:17:18.468Z,9.25
2023-04-29T01:19:50.396Z,9.23
2023-04-29T01:22:21.799Z,9.25
2023-04-29T01:24:49.673Z,9.20
2023-04-29T01:27:29.823Z,9.19
2023-04-29T01:30:27.213Z,9.15
2023-04-29T01:33:16.941Z,9.13
2023-04-29T01:36:12.735Z,9.13
2023-04-29T01:38:49.827Z,9.13
2023-04-29T01:41:34.947Z,9.15
2023-04-29T01:44:16.746Z,9.15
2023-04-29T01:46:49.070Z,9.15
2023-04-29T01:49:15.869Z,9.17
2023-04-29T01:51:42.458Z,9.17
2023-04-29T01:54:08.964Z,9.15
2023-04-29T01:56:35.645Z,9.17
2023-04-29T01:59:20.898Z,9.20
2023-04-29T02:02:07.408Z,9.21
2023-04-29T02:04:36.401Z,9.20
2023-04-29T02:07:03.673Z,9.18
2023-04-29T02:09:30.973Z,9.20
2023-04-29T02:12:05.698Z,9.19
2023-04-29T02:14:35.605Z,9.19
2023-04-29T02:17:04.089Z,9.22
2023-04-29T02:19:31.209Z,9.24
2023-04-29T02:21:57.795Z,9.22
2023-04-29T02:24:25.692Z,9.23
2023-04-29T02:26:52.161Z,9.22
2023-04-29T02:29:18.968Z,9.23
2023-04-29T02:31:45.481Z,9.23
2023-04-29T02:34:11.954Z,9.23
2023-04-29T02:36:38.385Z,9.24
2023-04-29T02:39:05.282Z,9.23
2023-04-29T02:41:31.803Z,9.26
2023-04-29T02:43:58.211Z,9.26
2023-04-29T02:46:24.917Z,9.26
2023-04-29T02:48:52.852Z,9.25
2023-04-29T02:51:19.826Z,9.23
2023-04-29T02:53:46.272Z,9.26
2023-04-29T02:56:12.689Z,9.23
2023-04-29T02:58:39.153Z,9.25
2023-04-29T03:01:05.671Z,9.23
2023-04-29T03:03:32.282Z,9.24
2023-04-29T03:05:58.965Z,9.23
2023-04-29T03:08:25.486Z,9.25
2023-04-29T03:10:52.150Z,9.25
2023-04-29T03:13:19.140Z,9.23
2023-04-29T03:15:45.683Z,9.21
2023-04-29T03:18:12.218Z,9.20
2023-04-29T03:20:38.714Z,9.18
2023-04-29T03:23:05.349Z,9.17
2023-04-29T03:25:31.772Z,9.17
2023-04-29T03:27:58.241Z,9.16
2023-04-29T03:30:24.863Z,9.15
2023-04-29T03:32:55.050Z,9.17
2023-04-29T03:35:21.774Z,9.15
2023-04-29T03:38:13.920Z,9.14
2023-04-29T03:40:40.715Z,9.13
2023-04-29T03:43:09.336Z,9.10
2023-04-29T03:45:35.936Z,9.09
2023-04-29T03:48:03.470Z,9.07
2023-04-29T03:50:30.235Z,9.07
2023-04-29T03:52:57.757Z,9.06
2023-04-29T03:55:24.243Z,9.08
2023-04-29T03:57:51.160Z,9.09
2023-04-29T04:00:18.863Z,9.08
2023-04-29T04:02:49.924Z,9.07
2023-04-29T04:05:19.369Z,9.06
2023-04-29T04:07:49.530Z,9.07
2023-04-29T04:10:34.101Z,9.07
2023-04-29T04:13:03.742Z,9.04
2023-04-29T04:15:30.287Z,9.05
2023-04-29T04:17:57.928Z,9.05
2023-04-29T04:20:24.458Z,9.04
2023-04-29T04:22:50.989Z,9.02
2023-04-29T04:25:30.252Z,9.02
2023-04-29T04:28:06.217Z,9.00
2023-04-29T04:30:50.900Z,9.06
2023-04-29T04:33:17.546Z,9.03
2023-04-29T04:35:45.822Z,9.05
2023-04-29T04:38:12.559Z,9.06
2023-04-29T04:40:42.468Z,9.07
2023-04-29T04:43:26.903Z,9.09
2023-04-29T04:45:54.267Z,9.09
2023-04-29T04:48:20.765Z,9.11
2023-04-29T04:51:10.042Z,9.12
2023-04-29T04:53:36.969Z,9.13
2023-04-29T04:56:08.486Z,9.13
2023-04-29T04:58:35.890Z,9.18
2023-04-29T05:01:03.469Z,9.19
2023-04-29T05:03:30.203Z,9.22
2023-04-29T05:05:58.330Z,9.25
2023-04-29T05:08:25.752Z,9.31
2023-04-29T05:10:55.556Z,9.35
2023-04-29T05:13:22.312Z,9.38
2023-04-29T05:15:49.080Z,9.45
2023-04-29T05:18:20.747Z,9.52
2023-04-29T05:20:49.725Z,9.61
2023-04-29T05:23:16.367Z,9.66
2023-04-29T05:25:45.238Z,9.74
2023-04-29T05:28:11.784Z,9.76
2023-04-29T05:30:40.985Z,9.88
2023-04-29T05:33:08.145Z,9.95
2023-04-29T05:35:34.745Z,9.95
2023-04-29T05:38:01.300Z,9.95
2023-04-29T05:40:35.538Z,9.97
2023-04-29T05:43:21.768Z,10.12
2023-04-29T05:45:48.515Z,10.37
2023-04-29T05:48:14.956Z,10.59
2023-04-29T05:50:41.552Z,10.71
2023-04-29T05:53:08.354Z,10.93
2023-04-29T05:55:35.509Z,11.12
2023-04-29T05:58:02.063Z,11.37
2023-04-29T06:00:28.538Z,11.52
2023-04-29T06:03:01.580Z,11.66
2023-04-29T06:05:28.773Z,11.82
2023-04-29T06:08:10.706Z,11.83
2023-04-29T06:10:45.891Z,11.76
2023-04-29T06:13:12.550Z,11.67
2023-04-29T06:15:39.272Z,11.78
2023-04-29T06:18:05.806Z,11.92
2023-04-29T06:20:32.403Z,12.11
2023-04-29T06:22:58.878Z,12.19
2023-04-29T06:25:25.370Z,12.05
2023-04-29T06:27:51.852Z,12.10
2023-04-29T06:30:22.076Z,12.32
2023-04-29T06:32:48.592Z,12.16
2023-04-29T06:35:15.556Z,11.99
2023-04-29T06:38:08.089Z,12.00
2023-04-29T06:40:40.220Z,12.43
2023-04-29T06:43:12.377Z,12.41
2023-04-29T06:46:10.024Z,12.85
2023-04-29T06:48:45.954Z,13.22
2023-04-29T06:51:12.754Z,12.79
2023-04-29T06:53:39.249Z,12.91
2023-04-29T06:56:06.799Z,13.22
2023-04-29T06:58:33.238Z,14.09
2023-04-29T07:01:00.456Z,14.77
2023-04-29T07:03:27.442Z,14.78
2023-04-29T07:05:53.970Z,14.81
2023-04-29T07:08:20.421Z,16.71
2023-04-29T07:10:55.093Z,15.03
2023-04-29T07:13:23.581Z,13.79
2023-04-29T07:15:51.037Z,13.57
2023-04-29T07:18:17.950Z,13.52
2023-04-29T07:20:44.547Z,14.06
2023-04-29T07:23:11.243Z,15.93
2023-04-29T07:25:37.886Z,19.38
2023-04-29T07:28:05.474Z,17.90
2023-04-29T07:30:32.062Z,15.82
2023-04-29T07:32:58.592Z,14.74
2023-04-29T07:35:25.028Z,14.43
2023-04-29T07:37:51.672Z,14.28
2023-04-29T07:40:18.540Z,14.11
2023-04-29T07:42:45.353Z,14.07
2023-04-29T07:45:13.811Z,14.42
2023-04-29T07:47:40.426Z,15.45
2023-04-29T07:50:07.324Z,18.45
2023-04-29T07:52:34.031Z,21.87
2023-04-29T07:55:00.763Z,22.30
2023-04-29T07:57:27.200Z,22.48
2023-04-29T07:59:54.606Z,23.94
2023-04-29T08:02:21.767Z,24.64
2023-04-29T08:04:51.359Z,24.39
2023-04-29T08:07:18.449Z,23.50
2023-04-29T08:09:45.058Z,24.51
2023-04-29T08:12:11.532Z,25.05
2023-04-29T08:14:40.289Z,25.74
2023-04-29T08:17:07.441Z,26.57
2023-04-29T08:19:33.997Z,27.03
2023-04-29T08:22:01.177Z,25.22
2023-04-29T08:24:29.012Z,23.21
2023-04-29T08:26:55.459Z,21.17
2023-04-29T08:29:21.988Z,19.78
2023-04-29T08:31:48.544Z,18.64
2023-04-29T08:34:15.045Z,17.65
2023-04-29T08:36:41.511Z,17.50
2023-04-29T08:39:08.555Z,19.61
2023-04-29T08:41:37.028Z,21.28
2023-04-29T08:44:03.533Z,22.39
2023-04-29T08:46:30.952Z,22.38
2023-04-29T08:48:58.804Z,21.50
2023-04-29T08:51:25.689Z,20.68
2023-04-29T08:53:52.201Z,19.83
2023-04-29T08:56:20.513Z,19.28
2023-04-29T08:58:51.836Z,18.68
2023-04-29T09:01:18.843Z,17.84
2023-04-29T09:04:05.807Z,17.26
2023-04-29T09:06:33.402Z,16.79
2023-04-29T09:09:02.006Z,17.22
2023-04-29T09:11:29.889Z,19.17
2023-04-29T09:14:01.376Z,18.87
2023-04-29T09:16:28.905Z,18.58
2023-04-29T09:18:56.686Z,20.32
2023-04-29T09:21:25.953Z,20.37
2023-04-29T09:24:03.015Z,19.11
2023-04-29T09:26:43.891Z,19.89
2023-04-29T09:29:16.127Z,21.38
2023-04-29T09:31:42.882Z,21.63
2023-04-29T09:34:14.320Z,20.80
2023-04-29T09:36:47.519Z,20.14
2023-04-29T09:39:19.174Z,20.62
2023-04-29T09:41:54.467Z,21.22
2023-04-29T09:44:26.738Z,21.98
2023-04-29T09:47:04.611Z,22.54
2023-04-29T09:49:37.418Z,22.90
2023-04-29T09:52:06.035Z,23.48
2023-04-29T09:54:34.279Z,21.91
2023-04-29T09:57:02.580Z,20.98
2023-04-29T09:59:29.133Z,22.51
2023-04-29T10:01:58.059Z,23.60
2023-04-29T10:04:26.980Z,24.18
2023-04-29T10:06:55.356Z,24.34
2023-04-29T10:09:23.741Z,24.10
2023-04-29T10:11:54.004Z,24.10
2023-04-29T10:14:22.412Z,24.55
2023-04-29T10:17:02.262Z,22.78
2023-04-29T10:19:35.640Z,21.13
2023-04-29T10:22:08.888Z,20.48
2023-04-29T10:24:39.959Z,21.58
2023-04-29T10:27:14.373Z,22.67
2023-04-29T10:29:42.011Z,23.03
2023-04-29T10:32:12.948Z,23.83
2023-04-29T10:34:40.582Z,23.26
2023-04-29T10:37:09.998Z,22.37
2023-04-29T10:39:44.095Z,21.18
2023-04-29T10:42:39.256Z,19.87
2023-04-29T10:45:24.746Z,19.45
2023-04-29T10:48:09.076Z,21.56
2023-04-29T10:50:48.861Z,22.52
2023-04-29T10:53:15.924Z,21.27
2023-04-29T10:55:46.963Z,21.10
2023-04-29T10:58:46.394Z,21.35
2023-04-29T11:01:17.583Z,21.75
2023-04-29T11:03:49.490Z,21.60
2023-04-29T11:06:16.801Z,20.80
2023-04-29T11:08:43.405Z,20.83
2023-04-29T11:11:10.096Z,20.59
2023-04-29T11:13:40.460Z,19.79
2023-04-29T11:16:09.658Z,21.20
2023-04-29T11:18:56.821Z,22.37
2023-04-29T11:21:23.488Z,20.64
2023-04-29T11:23:52.357Z,19.46
2023-04-29T11:26:23.859Z,19.89
2023-04-29T11:28:52.036Z,20.31
2023-04-29T11:31:18.485Z,20.23
2023-04-29T11:33:46.666Z,19.67
2023-04-29T11:36:14.243Z,19.58
2023-04-29T11:38:41.744Z,20.14
2023-04-29T11:41:08.891Z,21.10
2023-04-29T11:43:35.302Z,21.56
2023-04-29T11:46:01.906Z,21.76
2023-04-29T11:48:30.213Z,22.07
2023-04-29T11:50:57.845Z,22.34
2023-04-29T11:53:27.776Z,22.11
2023-04-29T11:55:55.132Z,21.87
2023-04-29T11:58:23.265Z,22.16
2023-04-29T12:00:52.023Z,21.02
2023-04-29T12:03:20.893Z,21.34
2023-04-29T12:05:54.584Z,21.63
2023-04-29T12:08:21.900Z,21.98
2023-04-29T12:10:48.963Z,21.86
2023-04-29T12:13:19.556Z,20.93
2023-04-29T12:15:51.151Z,20.51
2023-04-29T12:18:19.312Z,20.87
2023-04-29T12:20:46.764Z,20.60
2023-04-29T12:23:14.644Z,20.76
2023-04-29T12:25:42.509Z,20.62
2023-04-29T12:28:13.168Z,21.27
2023-04-29T12:30:39.700Z,21.14
2023-04-29T12:33:09.643Z,20.28
2023-04-29T12:35:37.566Z,20.47
2023-04-29T12:38:04.168Z,21.05
2023-04-29T12:40:32.716Z,20.72
2023-04-29T12:43:07.015Z,20.36
2023-04-29T12:45:34.041Z,20.06
2023-04-29T12:48:02.411Z,20.35
2023-04-29T12:50:37.823Z,20.53
2023-04-29T12:53:06.410Z,20.26
2023-04-29T12:55:34.922Z,20.83
2023-04-29T12:58:01.910Z,20.45
2023-04-29T13:00:28.308Z,19.58
2023-04-29T13:02:55.389Z,18.99
2023-04-29T13:05:22.787Z,19.17
2023-04-29T13:07:49.900Z,20.04
2023-04-29T13:10:16.442Z,20.18
2023-04-29T13:12:42.989Z,20.11
2023-04-29T13:15:10.346Z,20.02
2023-04-29T13:17:37.617Z,20.26
2023-04-29T13:20:05.648Z,20.61
2023-04-29T13:22:32.748Z,20.65
2023-04-29T13:24:59.450Z,20.72
2023-04-29T13:27:25.981Z,20.30
2023-04-29T13:29:52.535Z,20.28
2023-04-29T13:32:21.375Z,20.25
2023-04-29T13:34:47.998Z,20.03
2023-04-29T13:37:15.676Z,20.30
2023-04-29T13:39:45.718Z,20.59
2023-04-29T13:42:15.522Z,20.87
2023-04-29T13:44:52.271Z,20.90
2023-04-29T13:47:24.669Z,20.91
2023-04-29T13:55:25.812Z,20.17
2023-04-29T14:00:30.945Z,20.07
2023-04-29T14:05:25.384Z,19.30
2023-04-29T14:07:52.179Z,19.28
2023-04-29T14:10:18.677Z,19.54
2023-04-29T14:12:45.549Z,19.65
2023-04-29T14:15:12.158Z,19.32
2023-04-29T14:17:38.676Z,19.29
2023-04-29T14:20:05.940Z,19.26
2023-04-29T14:22:32.545Z,19.11
2023-04-29T14:24:58.978Z,19.04
2023-04-29T14:27:25.635Z,19.03
2023-04-29T14:29:52.105Z,18.95
2023-04-29T14:32:18.558Z,19.01
2023-04-29T14:34:45.006Z,18.94
2023-04-29T14:37:11.867Z,18.99
2023-04-29T14:39:38.286Z,19.03
2023-04-29T14:42:05.352Z,18.98
2023-04-29T14:44:31.858Z,18.85
2023-04-29T14:46:58.358Z,18.75
2023-04-29T14:49:24.897Z,18.61
2023-04-29T14:51:51.607Z,18.68
2023-04-29T14:54:18.037Z,18.61
2023-04-29T14:56:44.427Z,18.63
2023-04-29T14:59:11.028Z,18.47
2023-04-29T15:01:39.581Z,18.58
2023-04-29T15:04:06.194Z,18.59
2023-04-29T15:06:32.866Z,18.63
2023-04-29T15:08:59.359Z,18.43
2023-04-29T15:11:26.149Z,18.48
2023-04-29T15:13:52.574Z,18.47
2023-04-29T15:16:19.410Z,18.32
2023-04-29T15:18:46.504Z,18.12
2023-04-29T15:21:13.110Z,18.18
2023-04-29T15:23:39.665Z,18.20
2023-04-29T15:26:07.141Z,17.97
2023-04-29T15:28:33.729Z,17.94
2023-04-29T15:31:01.790Z,17.86
2023-04-29T15:33:28.290Z,18.06
2023-04-29T15:35:56.688Z,18.11
2023-04-29T15:38:23.280Z,18.01
2023-04-29T15:40:49.887Z,18.00
2023-04-29T15:43:16.634Z,18.01
2023-04-29T15:45:43.097Z,17.76
2023-04-29T15:48:09.991Z,17.63
2023-04-29T15:50:36.426Z,17.59
2023-04-29T15:53:02.909Z,17.66
2023-04-29T15:55:29.337Z,17.58
2023-04-29T15:57:55.799Z,17.69
2023-04-29T16:00:22.340Z,17.64
2023-04-29T16:02:48.866Z,17.64
2023-04-29T16:05:15.450Z,17.74
2023-04-29T16:07:42.022Z,17.60
2023-04-29T16:10:09.987Z,17.45
2023-04-29T16:12:36.615Z,17.42
2023-04-29T16:15:04.275Z,17.37
2023-04-29T16:17:34.508Z,17.35
2023-04-29T16:20:01.485Z,17.34
2023-04-29T16:22:28.107Z,17.26
2023-04-29T16:24:54.590Z,17.20
2023-04-29T16:27:21.261Z,17.13
2023-04-29T16:29:47.786Z,17.17
2023-04-29T16:32:14.455Z,17.09
2023-04-29T16:34:41.746Z,16.86
2023-04-29T16:37:12.426Z,16.79
2023-04-29T16:39:39.773Z,16.80
2023-04-29T16:42:07.282Z,16.84
2023-04-29T16:44:33.747Z,16.79
2023-04-29T16:47:00.234Z,16.63
2023-04-29T16:49:26.805Z,16.58
2023-04-29T16:51:54.510Z,16.46
2023-04-29T16:54:23.975Z,16.18
2023-04-29T16:56:51.309Z,16.18
2023-04-29T16:59:18.082Z,16.09
2023-04-29T17:01:44.943Z,15.95
2023-04-29T17:04:11.699Z,15.82
2023-04-29T17:06:40.457Z,15.65
2023-04-29T17:09:07.410Z,15.50
2023-04-29T17:11:33.899Z,15.45
2023-04-29T17:14:00.306Z,15.40
2023-04-29T17:16:27.253Z,15.18
2023-04-29T17:18:54.334Z,15.11
2023-04-29T17:21:24.611Z,14.99
2023-04-29T17:23:53.020Z,14.83
2023-04-29T17:26:20.323Z,14.76
2023-04-29T17:28:46.930Z,14.58
2023-04-29T17:31:15.425Z,14.43
2023-04-29T17:33:50.428Z,14.27
2023-04-29T17:36:17.359Z,14.13
2023-04-29T17:38:43.826Z,14.10
2023-04-29T17:41:10.328Z,13.99
2023-04-29T17:43:36.919Z,13.89
2023-04-29T17:46:03.779Z,13.83
2023-04-29T17:48:32.207Z,13.68
2023-04-29T17:50:58.877Z,13.58
2023-04-29T17:53:26.147Z,13.51
2023-04-29T17:55:52.538Z,13.48
2023-04-29T17:58:19.016Z,13.49
2023-04-29T18:00:46.261Z,13.44
2023-04-29T18:03:12.834Z,13.31
2023-04-29T18:05:39.513Z,13.17
2023-04-29T18:08:06.278Z,13.13
2023-04-29T18:10:32.710Z,13.06
2023-04-29T18:12:59.747Z,13.01
2023-04-29T18:15:26.261Z,12.98
2023-04-29T18:17:54.486Z,12.92
2023-04-29T18:20:22.422Z,12.84
2023-04-29T18:22:50.565Z,12.80
2023-04-29T18:25:17.402Z,12.74
2023-04-29T18:27:44.439Z,12.76
2023-04-29T18:30:11.224Z,12.67
2023-04-29T18:32:38.426Z,12.56
2023-04-29T18:35:05.761Z,12.46
2023-04-29T18:37:32.230Z,12.40
2023-04-29T18:39:58.731Z,12.31
2023-04-29T18:42:25.820Z,12.24
2023-04-29T18:44:52.417Z,12.19
2023-04-29T18:47:21.808Z,12.17
2023-04-29T18:49:48.383Z,12.12
2023-04-29T18:52:14.897Z,12.05
2023-04-29T18:54:41.286Z,11.94
2023-04-29T18:57:07.824Z,11.84
2023-04-29T18:59:37.542Z,11.77
2023-04-29T19:02:06.002Z,11.68
2023-04-29T19:04:33.206Z,11.58
2023-04-29T19:07:00.249Z,11.52
2023-04-29T19:09:28.207Z,11.45
2023-04-29T19:11:54.766Z,11.38
2023-04-29T19:14:21.393Z,11.31
2023-04-29T19:16:47.938Z,11.20
2023-04-29T19:19:14.439Z,11.11
2023-04-29T19:21:40.953Z,11.12
2023-04-29T19:24:07.434Z,11.11
2023-04-29T19:26:36.028Z,11.05
2023-04-29T19:29:03.849Z,10.99
2023-04-29T19:31:30.536Z,10.93
2023-04-29T19:33:57.142Z,10.89
2023-04-29T19:36:23.561Z,10.84
2023-04-29T19:38:50.177Z,10.79
2023-04-29T19:41:17.643Z,10.76
2023-04-29T19:43:44.057Z,10.67
2023-04-29T19:46:14.187Z,10.66
2023-04-29T19:48:40.970Z,10.60
2023-04-29T19:51:08.414Z,10.55
2023-04-29T19:53:38.549Z,10.53
2023-04-29T19:56:05.412Z,10.53
2023-04-29T19:58:35.235Z,10.48
2023-04-29T20:01:01.793Z,10.48
2023-04-29T20:03:28.409Z,10.51
2023-04-29T20:05:55.121Z,10.50
2023-04-29T20:08:21.773Z,10.48
2023-04-29T20:10:48.430Z,10.49
2023-04-29T20:13:15.586Z,10.48
2023-04-29T20:15:42.245Z,10.43
2023-04-29T20:18:08.705Z,10.39
2023-04-29T20:20:35.366Z,10.35
2023-04-29T20:23:01.828Z,10.32
2023-04-29T20:25:28.435Z,10.23
2023-04-29T20:27:54.892Z,10.23
2023-04-29T20:30:21.635Z,10.23
2023-04-29T20:32:48.348Z,10.18
2023-04-29T20:35:15.644Z,10.12
2023-04-29T20:37:42.076Z,10.05
2023-04-29T20:40:09.742Z,10.00
2023-04-29T20:42:36.178Z,10.01
2023-04-29T20:45:02.774Z,10.00
2023-04-29T20:47:30.074Z,9.97
2023-04-29T20:49:57.905Z,9.94
2023-04-29T20:52:24.361Z,9.87
2023-04-29T20:54:52.505Z,9.76
2023-04-29T20:57:18.966Z,9.73
2023-04-29T20:59:45.825Z,9.70
2023-04-29T21:02:12.401Z,9.69
2023-04-29T21:04:38.851Z,9.65
2023-04-29T21:07:06.913Z,9.65
2023-04-29T21:09:35.656Z,9.61
2023-04-29T21:12:04.407Z,9.61
2023-04-29T21:14:31.081Z,9.58
2023-04-29T21:16:57.725Z,9.55
2023-04-29T21:19:24.396Z,9.52
2023-04-29T21:21:50.882Z,9.47
2023-04-29T21:24:17.362Z,9.42
2023-04-29T21:26:43.966Z,9.39
2023-04-29T21:29:10.459Z,9.36
2023-04-29T21:31:37.003Z,9.39
2023-04-29T21:34:03.571Z,9.37
2023-04-29T21:36:31.983Z,9.34
2023-04-29T21:38:58.447Z,9.32
2023-04-29T21:41:31.103Z,9.32
2023-04-29T21:43:59.124Z,9.27
2023-04-29T21:46:28.211Z,9.23
2023-04-29T21:48:58.040Z,9.14
2023-04-29T21:51:24.782Z,9.07
2023-04-29T21:53:51.461Z,8.98
2023-04-29T21:56:18.177Z,8.91
2023-04-29T21:58:45.341Z,8.90
2023-04-29T22:01:29.457Z,8.88
2023-04-29T22:03:57.048Z,8.86
2023-04-29T22:06:24.076Z,8.83
2023-04-29T22:08:50.709Z,8.82
2023-04-29T22:11:18.318Z,8.74
2023-04-29T22:13:45.495Z,8.70
2023-04-29T22:16:12.314Z,8.70
2023-04-29T22:18:38.998Z,8.70
2023-04-29T22:21:05.708Z,8.66
2023-04-29T22:23:32.177Z,8.67
2023-04-29T22:25:58.813Z,8.68
2023-04-29T22:28:25.343Z,8.66
2023-04-29T22:30:52.042Z,8.69
2023-04-29T22:33:18.428Z,8.68
2023-04-29T22:35:45.145Z,8.66
2023-04-29T22:38:11.584Z,8.65
2023-04-29T22:40:38.265Z,8.58
2023-04-29T22:43:04.789Z,8.56
2023-04-29T22:45:32.015Z,8.51
2023-04-29T22:47:58.502Z,8.49
2023-04-29T22:50:24.985Z,8.45
2023-04-29T22:52:51.517Z,8.44
2023-04-29T22:55:18.125Z,8.42
2023-04-29T22:57:44.514Z,8.35
2023-04-29T23:00:11.811Z,8.32
2023-04-29T23:02:38.208Z,8.31
2023-04-29T23:05:07.505Z,8.28
2023-04-29T23:07:34.029Z,8.26
2023-04-29T23:10:00.472Z,8.22
2023-04-29T23:12:26.921Z,8.18
2023-04-29T23:14:53.547Z,8.14
2023-04-29T23:17:20.051Z,8.09
2023-04-29T23:19:46.615Z,8.04
2023-04-29T23:22:13.131Z,8.02
2023-04-29T23:24:40.239Z,8.03
2023-04-29T23:27:06.702Z,8.03
2023-04-29T23:29:36.220Z,8.03
2023-04-29T23:32:03.250Z,8.05
2023-04-29T23:34:29.719Z,8.00
2023-04-29T23:36:56.282Z,7.99
2023-04-29T23:39:22.781Z,7.94
2023-04-29T23:41:49.505Z,7.91
2023-04-29T23:44:15.957Z,7.84
2023-04-29T23:46:42.403Z,7.79
2023-04-29T23:49:10.375Z,7.74
2023-04-29T23:51:36.852Z,7.68
2023-04-29T23:54:03.491Z,7.61
2023-04-29T23:56:31.404Z,7.55
2023-04-29T23:58:57.903Z,7.47
